sensor_id;sensor_type;location;lat;lon;timestamp;P1;durP1;ratioP1;P2;durP2;ratioP2
22565;SDS011;11449;51.330;19.378;2022-11-15T00:02:16;84.77;;;25.15;;
22565;SDS011;11449;51.330;19.378;2022-11-15T00:07:35;76.72;;;26.07;;
22565;SDS011;11449;51.330;19.378;2022-11-15T00:12:54;70.05;;;25.35;;
22565;SDS011;11449;51.330;19.378;2022-11-15T00:18:14;81.05;;;25.90;;
22565;SDS011;11449;51.330;19.378;2022-11-15T00:23:34;74.42;;;27.65;;
22565;SDS011;11449;51.330;19.378;2022-11-15T00:28:53;94.70;;;25.88;;
22565;SDS011;11449;51.330;19.378;2022-11-15T00:34:12;86.32;;;24.27;;
22565;SDS011;11449;51.330;19.378;2022-11-15T00:39:32;79.58;;;24.02;;
22565;SDS011;11449;51.330;19.378;2022-11-15T00:44:51;58.87;;;23.77;;
22565;SDS011;11449;51.330;19.378;2022-11-15T00:50:10;89.30;;;24.32;;
22565;SDS011;11449;51.330;19.378;2022-11-15T00:55:30;125.18;;;23.77;;
22565;SDS011;11449;51.330;19.378;2022-11-15T01:00:49;101.78;;;22.52;;
22565;SDS011;11449;51.330;19.378;2022-11-15T01:06:08;67.70;;;24.05;;
22565;SDS011;11449;51.330;19.378;2022-11-15T01:11:27;78.45;;;24.43;;
22565;SDS011;11449;51.330;19.378;2022-11-15T01:16:46;73.40;;;22.30;;
22565;SDS011;11449;51.330;19.378;2022-11-15T01:22:05;72.40;;;21.07;;
22565;SDS011;11449;51.330;19.378;2022-11-15T01:27:25;95.72;;;21.87;;
22565;SDS011;11449;51.330;19.378;2022-11-15T01:32:44;87.97;;;24.12;;
22565;SDS011;11449;51.330;19.378;2022-11-15T01:38:03;94.40;;;21.50;;
22565;SDS011;11449;51.330;19.378;2022-11-15T01:43:24;89.10;;;21.95;;
22565;SDS011;11449;51.330;19.378;2022-11-15T01:54:05;139.43;;;23.73;;
22565;SDS011;11449;51.330;19.378;2022-11-15T01:59:23;105.85;;;23.25;;
22565;SDS011;11449;51.330;19.378;2022-11-15T02:04:43;77.22;;;23.52;;
22565;SDS011;11449;51.330;19.378;2022-11-15T02:10:05;75.45;;;23.00;;
22565;SDS011;11449;51.330;19.378;2022-11-15T02:20:54;121.72;;;22.48;;
22565;SDS011;11449;51.330;19.378;2022-11-15T02:48:01;90.53;;;21.20;;
22565;SDS011;11449;51.330;19.378;2022-11-15T02:53:25;70.95;;;21.30;;
22565;SDS011;11449;51.330;19.378;2022-11-15T03:04:23;93.95;;;21.77;;
22565;SDS011;11449;51.330;19.378;2022-11-15T03:09:44;145.35;;;22.70;;
22565;SDS011;11449;51.330;19.378;2022-11-15T03:15:04;99.42;;;22.85;;
22565;SDS011;11449;51.330;19.378;2022-11-15T03:20:20;205.92;;;24.60;;
22565;SDS011;11449;51.330;19.378;2022-11-15T03:25:47;119.72;;;23.12;;
22565;SDS011;11449;51.330;19.378;2022-11-15T03:31:03;108.25;;;21.17;;
22565;SDS011;11449;51.330;19.378;2022-11-15T03:36:27;76.57;;;20.23;;
22565;SDS011;11449;51.330;19.378;2022-11-15T03:41:49;106.37;;;21.07;;
22565;SDS011;11449;51.330;19.378;2022-11-15T03:47:12;140.70;;;21.25;;
22565;SDS011;11449;51.330;19.378;2022-11-15T03:52:31;96.72;;;21.45;;
22565;SDS011;11449;51.330;19.378;2022-11-15T03:57:52;86.47;;;19.30;;
22565;SDS011;11449;51.330;19.378;2022-11-15T04:08:30;71.57;;;19.17;;
22565;SDS011;11449;51.330;19.378;2022-11-15T04:13:49;79.77;;;19.42;;
22565;SDS011;11449;51.330;19.378;2022-11-15T04:19:09;133.00;;;21.55;;
22565;SDS011;11449;51.330;19.378;2022-11-15T04:24:46;85.32;;;19.32;;
22565;SDS011;11449;51.330;19.378;2022-11-15T04:30:06;86.95;;;17.87;;
22565;SDS011;11449;51.330;19.378;2022-11-15T04:35:25;99.17;;;20.37;;
22565;SDS011;11449;51.330;19.378;2022-11-15T04:40:44;115.08;;;21.97;;
22565;SDS011;11449;51.330;19.378;2022-11-15T04:46:04;87.20;;;19.62;;
22565;SDS011;11449;51.330;19.378;2022-11-15T04:51:23;105.72;;;20.62;;
22565;SDS011;11449;51.330;19.378;2022-11-15T04:56:42;105.58;;;20.52;;
22565;SDS011;11449;51.330;19.378;2022-11-15T05:02:02;75.42;;;19.55;;
22565;SDS011;11449;51.330;19.378;2022-11-15T05:07:21;173.78;;;18.70;;
22565;SDS011;11449;51.330;19.378;2022-11-15T05:12:40;110.35;;;19.85;;
22565;SDS011;11449;51.330;19.378;2022-11-15T05:17:59;101.92;;;20.05;;
22565;SDS011;11449;51.330;19.378;2022-11-15T05:23:22;190.07;;;23.30;;
22565;SDS011;11449;51.330;19.378;2022-11-15T05:28:41;215.47;;;19.23;;
22565;SDS011;11449;51.330;19.378;2022-11-15T05:34:00;128.85;;;21.70;;
22565;SDS011;11449;51.330;19.378;2022-11-15T05:39:19;126.40;;;20.88;;
22565;SDS011;11449;51.330;19.378;2022-11-15T05:44:39;202.70;;;24.32;;
22565;SDS011;11449;51.330;19.378;2022-11-15T05:50:00;120.77;;;19.60;;
22565;SDS011;11449;51.330;19.378;2022-11-15T05:55:19;154.32;;;21.02;;
22565;SDS011;11449;51.330;19.378;2022-11-15T06:00:39;212.38;;;23.95;;
22565;SDS011;11449;51.330;19.378;2022-11-15T06:05:58;130.87;;;20.77;;
22565;SDS011;11449;51.330;19.378;2022-11-15T06:11:17;222.95;;;23.15;;
22565;SDS011;11449;51.330;19.378;2022-11-15T06:16:36;158.40;;;21.15;;
22565;SDS011;11449;51.330;19.378;2022-11-15T06:21:55;161.40;;;20.27;;
22565;SDS011;11449;51.330;19.378;2022-11-15T06:27:15;121.82;;;20.30;;
22565;SDS011;11449;51.330;19.378;2022-11-15T06:32:34;109.95;;;18.87;;
22565;SDS011;11449;51.330;19.378;2022-11-15T06:37:53;71.12;;;18.12;;
22565;SDS011;11449;51.330;19.378;2022-11-15T06:43:13;174.87;;;20.15;;
22565;SDS011;11449;51.330;19.378;2022-11-15T06:48:33;127.10;;;20.40;;
22565;SDS011;11449;51.330;19.378;2022-11-15T06:53:52;59.50;;;18.83;;
22565;SDS011;11449;51.330;19.378;2022-11-15T06:59:12;48.65;;;18.62;;
22565;SDS011;11449;51.330;19.378;2022-11-15T07:04:31;55.12;;;21.25;;
22565;SDS011;11449;51.330;19.378;2022-11-15T07:09:50;74.82;;;19.52;;
22565;SDS011;11449;51.330;19.378;2022-11-15T07:15:09;43.83;;;18.37;;
22565;SDS011;11449;51.330;19.378;2022-11-15T07:20:29;37.93;;;18.60;;
22565;SDS011;11449;51.330;19.378;2022-11-15T07:25:48;42.15;;;20.10;;
22565;SDS011;11449;51.330;19.378;2022-11-15T07:31:08;39.27;;;20.12;;
22565;SDS011;11449;51.330;19.378;2022-11-15T07:36:27;36.47;;;19.00;;
22565;SDS011;11449;51.330;19.378;2022-11-15T07:41:46;37.20;;;20.25;;
22565;SDS011;11449;51.330;19.378;2022-11-15T07:47:06;37.05;;;19.77;;
22565;SDS011;11449;51.330;19.378;2022-11-15T07:52:25;32.30;;;16.95;;
22565;SDS011;11449;51.330;19.378;2022-11-15T07:57:45;30.95;;;16.85;;
22565;SDS011;11449;51.330;19.378;2022-11-15T08:03:08;24.92;;;15.72;;
22565;SDS011;11449;51.330;19.378;2022-11-15T08:08:28;27.70;;;16.95;;
22565;SDS011;11449;51.330;19.378;2022-11-15T08:13:47;33.23;;;19.90;;
22565;SDS011;11449;51.330;19.378;2022-11-15T08:19:06;27.15;;;15.78;;
22565;SDS011;11449;51.330;19.378;2022-11-15T08:24:26;27.02;;;16.62;;
22565;SDS011;11449;51.330;19.378;2022-11-15T08:29:45;24.12;;;15.10;;
22565;SDS011;11449;51.330;19.378;2022-11-15T08:35:05;31.00;;;17.27;;
22565;SDS011;11449;51.330;19.378;2022-11-15T08:40:24;27.77;;;15.33;;
22565;SDS011;11449;51.330;19.378;2022-11-15T08:45:45;23.95;;;15.75;;
22565;SDS011;11449;51.330;19.378;2022-11-15T08:51:05;26.70;;;17.60;;
22565;SDS011;11449;51.330;19.378;2022-11-15T08:56:25;29.50;;;15.47;;
22565;SDS011;11449;51.330;19.378;2022-11-15T09:01:44;25.75;;;15.75;;
22565;SDS011;11449;51.330;19.378;2022-11-15T09:07:04;27.07;;;16.48;;
22565;SDS011;11449;51.330;19.378;2022-11-15T09:12:23;27.02;;;16.42;;
22565;SDS011;11449;51.330;19.378;2022-11-15T09:17:42;26.68;;;17.87;;
22565;SDS011;11449;51.330;19.378;2022-11-15T09:23:02;30.70;;;18.40;;
22565;SDS011;11449;51.330;19.378;2022-11-15T09:28:21;32.53;;;18.65;;
22565;SDS011;11449;51.330;19.378;2022-11-15T09:33:42;34.15;;;18.35;;
22565;SDS011;11449;51.330;19.378;2022-11-15T09:39:01;29.50;;;18.90;;
22565;SDS011;11449;51.330;19.378;2022-11-15T09:44:29;33.60;;;18.63;;
22565;SDS011;11449;51.330;19.378;2022-11-15T09:49:45;42.25;;;20.27;;
22565;SDS011;11449;51.330;19.378;2022-11-15T09:54:51;45.60;;;20.10;;
22565;SDS011;11449;51.330;19.378;2022-11-15T09:59:55;39.98;;;17.00;;
22565;SDS011;11449;51.330;19.378;2022-11-15T10:04:56;48.25;;;17.75;;
22565;SDS011;11449;51.330;19.378;2022-11-15T10:11:00;398.93;;;177.05;;
22565;SDS011;11449;51.330;19.378;2022-11-15T10:15:11;391.57;;;151.93;;
22565;SDS011;11449;51.330;19.378;2022-11-15T10:20:18;400.65;;;154.38;;
22565;SDS011;11449;51.330;19.378;2022-11-15T10:25:20;411.12;;;171.50;;
22565;SDS011;11449;51.330;19.378;2022-11-15T10:30:21;36.50;;;19.40;;
22565;SDS011;11449;51.330;19.378;2022-11-15T10:35:28;31.75;;;16.87;;
22565;SDS011;11449;51.330;19.378;2022-11-15T10:40:25;41.70;;;19.30;;
22565;SDS011;11449;51.330;19.378;2022-11-15T10:45:27;39.90;;;18.52;;
22565;SDS011;11449;51.330;19.378;2022-11-15T10:50:29;38.73;;;17.73;;
22565;SDS011;11449;51.330;19.378;2022-11-15T10:55:31;40.90;;;17.30;;
22565;SDS011;11449;51.330;19.378;2022-11-15T11:00:35;38.33;;;17.02;;
22565;SDS011;11449;51.330;19.378;2022-11-15T11:05:38;47.58;;;17.25;;
22565;SDS011;11449;51.330;19.378;2022-11-15T11:10:39;60.05;;;17.80;;
22565;SDS011;11449;51.330;19.378;2022-11-15T11:15:43;51.50;;;18.30;;
22565;SDS011;11449;51.330;19.378;2022-11-15T11:20:49;48.00;;;18.27;;
22565;SDS011;11449;51.330;19.378;2022-11-15T11:25:52;43.40;;;17.98;;
22565;SDS011;11449;51.330;19.378;2022-11-15T11:36:17;40.85;;;16.73;;
22565;SDS011;11449;51.330;19.378;2022-11-15T11:46:25;34.58;;;17.27;;
22565;SDS011;11449;51.330;19.378;2022-11-15T11:51:26;39.38;;;18.48;;
22565;SDS011;11449;51.330;19.378;2022-11-15T11:56:28;36.28;;;19.60;;
22565;SDS011;11449;51.330;19.378;2022-11-15T12:01:33;41.95;;;19.27;;
22565;SDS011;11449;51.330;19.378;2022-11-15T12:06:36;47.80;;;18.98;;
22565;SDS011;11449;51.330;19.378;2022-11-15T12:11:49;44.42;;;19.25;;
22565;SDS011;11449;51.330;19.378;2022-11-15T12:16:49;46.05;;;18.67;;
22565;SDS011;11449;51.330;19.378;2022-11-15T12:22:01;70.45;;;28.20;;
22565;SDS011;11449;51.330;19.378;2022-11-15T12:32:02;64.53;;;19.02;;
22565;SDS011;11449;51.330;19.378;2022-11-15T12:37:32;252.95;;;156.75;;
22565;SDS011;11449;51.330;19.378;2022-11-15T12:52:12;376.55;;;203.30;;
22565;SDS011;11449;51.330;19.378;2022-11-15T13:02:20;337.70;;;174.55;;
22565;SDS011;11449;51.330;19.378;2022-11-15T13:27:54;376.98;;;157.95;;
22565;SDS011;11449;51.330;19.378;2022-11-15T13:33:13;397.23;;;166.65;;
22565;SDS011;11449;51.330;19.378;2022-11-15T13:38:03;391.57;;;161.25;;
22565;SDS011;11449;51.330;19.378;2022-11-15T13:48:23;367.32;;;154.63;;
22565;SDS011;11449;51.330;19.378;2022-11-15T13:53:24;392.95;;;149.93;;
22565;SDS011;11449;51.330;19.378;2022-11-15T13:58:25;419.00;;;154.70;;
22565;SDS011;11449;51.330;19.378;2022-11-15T14:03:34;383.77;;;153.57;;
22565;SDS011;11449;51.330;19.378;2022-11-15T14:08:32;363.92;;;146.10;;
22565;SDS011;11449;51.330;19.378;2022-11-15T14:13:33;371.93;;;164.72;;
22565;SDS011;11449;51.330;19.378;2022-11-15T14:18:41;378.52;;;147.53;;
22565;SDS011;11449;51.330;19.378;2022-11-15T14:23:43;47.08;;;20.30;;
22565;SDS011;11449;51.330;19.378;2022-11-15T14:28:44;52.85;;;20.80;;
22565;SDS011;11449;51.330;19.378;2022-11-15T14:33:45;51.68;;;24.82;;
22565;SDS011;11449;51.330;19.378;2022-11-15T14:38:46;61.20;;;31.05;;
22565;SDS011;11449;51.330;19.378;2022-11-15T14:43:47;91.90;;;39.65;;
22565;SDS011;11449;51.330;19.378;2022-11-15T14:48:48;120.25;;;48.25;;
22565;SDS011;11449;51.330;19.378;2022-11-15T14:53:49;102.45;;;43.25;;
22565;SDS011;11449;51.330;19.378;2022-11-15T14:58:50;288.42;;;119.53;;
22565;SDS011;11449;51.330;19.378;2022-11-15T15:03:51;375.50;;;155.50;;
22565;SDS011;11449;51.330;19.378;2022-11-15T15:08:52;352.15;;;148.47;;
22565;SDS011;11449;51.330;19.378;2022-11-15T15:13:53;405.87;;;144.70;;
22565;SDS011;11449;51.330;19.378;2022-11-15T15:18:56;397.72;;;149.55;;
22565;SDS011;11449;51.330;19.378;2022-11-15T15:23:57;343.82;;;136.90;;
22565;SDS011;11449;51.330;19.378;2022-11-15T15:28:58;411.02;;;138.57;;
22565;SDS011;11449;51.330;19.378;2022-11-15T15:33:59;453.30;;;151.25;;
22565;SDS011;11449;51.330;19.378;2022-11-15T15:39:00;432.68;;;142.82;;
22565;SDS011;11449;51.330;19.378;2022-11-15T15:44:01;429.38;;;140.77;;
22565;SDS011;11449;51.330;19.378;2022-11-15T15:49:01;421.87;;;139.88;;
22565;SDS011;11449;51.330;19.378;2022-11-15T15:54:02;381.13;;;143.05;;
22565;SDS011;11449;51.330;19.378;2022-11-15T15:59:03;418.97;;;142.68;;
22565;SDS011;11449;51.330;19.378;2022-11-15T16:04:04;429.62;;;137.80;;
22565;SDS011;11449;51.330;19.378;2022-11-15T16:09:05;480.77;;;156.10;;
22565;SDS011;11449;51.330;19.378;2022-11-15T16:14:07;464.60;;;158.37;;
22565;SDS011;11449;51.330;19.378;2022-11-15T16:19:07;476.75;;;171.13;;
22565;SDS011;11449;51.330;19.378;2022-11-15T16:24:09;497.13;;;167.82;;
22565;SDS011;11449;51.330;19.378;2022-11-15T16:29:10;490.17;;;180.82;;
22565;SDS011;11449;51.330;19.378;2022-11-15T16:34:10;397.60;;;184.37;;
22565;SDS011;11449;51.330;19.378;2022-11-15T16:39:11;425.12;;;173.65;;
22565;SDS011;11449;51.330;19.378;2022-11-15T16:44:14;423.52;;;159.27;;
22565;SDS011;11449;51.330;19.378;2022-11-15T16:49:16;469.85;;;172.10;;
22565;SDS011;11449;51.330;19.378;2022-11-15T16:54:17;484.57;;;160.07;;
22565;SDS011;11449;51.330;19.378;2022-11-15T16:59:18;504.10;;;165.90;;
22565;SDS011;11449;51.330;19.378;2022-11-15T17:04:20;406.47;;;147.90;;
22565;SDS011;11449;51.330;19.378;2022-11-15T17:09:22;449.58;;;151.47;;
22565;SDS011;11449;51.330;19.378;2022-11-15T17:14:24;412.55;;;151.50;;
22565;SDS011;11449;51.330;19.378;2022-11-15T17:19:24;458.80;;;175.60;;
22565;SDS011;11449;51.330;19.378;2022-11-15T17:24:25;443.95;;;182.02;;
22565;SDS011;11449;51.330;19.378;2022-11-15T17:29:26;394.45;;;162.40;;
22565;SDS011;11449;51.330;19.378;2022-11-15T17:34:27;413.65;;;167.60;;
22565;SDS011;11449;51.330;19.378;2022-11-15T17:39:28;393.97;;;159.18;;
22565;SDS011;11449;51.330;19.378;2022-11-15T17:44:29;425.85;;;184.55;;
22565;SDS011;11449;51.330;19.378;2022-11-15T17:49:30;442.03;;;177.00;;
22565;SDS011;11449;51.330;19.378;2022-11-15T17:54:31;479.70;;;181.80;;
22565;SDS011;11449;51.330;19.378;2022-11-15T17:59:32;456.90;;;168.13;;
22565;SDS011;11449;51.330;19.378;2022-11-15T18:04:33;345.95;;;161.62;;
22565;SDS011;11449;51.330;19.378;2022-11-15T18:09:34;371.25;;;164.93;;
22565;SDS011;11449;51.330;19.378;2022-11-15T18:14:35;398.82;;;155.75;;
22565;SDS011;11449;51.330;19.378;2022-11-15T18:19:36;244.40;;;91.30;;
22565;SDS011;11449;51.330;19.378;2022-11-15T18:24:37;263.25;;;116.55;;
22565;SDS011;11449;51.330;19.378;2022-11-15T18:29:38;278.52;;;120.80;;
22565;SDS011;11449;51.330;19.378;2022-11-15T18:34:39;285.93;;;108.95;;
22565;SDS011;11449;51.330;19.378;2022-11-15T18:39:40;260.65;;;113.50;;
22565;SDS011;11449;51.330;19.378;2022-11-15T18:44:41;286.55;;;109.52;;
22565;SDS011;11449;51.330;19.378;2022-11-15T18:49:42;217.93;;;95.80;;
22565;SDS011;11449;51.330;19.378;2022-11-15T18:54:43;423.55;;;177.07;;
22565;SDS011;11449;51.330;19.378;2022-11-15T18:59:44;358.15;;;160.30;;
22565;SDS011;11449;51.330;19.378;2022-11-15T19:04:45;345.77;;;152.38;;
22565;SDS011;11449;51.330;19.378;2022-11-15T19:09:46;368.80;;;168.43;;
22565;SDS011;11449;51.330;19.378;2022-11-15T19:14:47;399.48;;;183.85;;
22565;SDS011;11449;51.330;19.378;2022-11-15T19:19:47;392.85;;;177.27;;
22565;SDS011;11449;51.330;19.378;2022-11-15T19:24:48;505.33;;;221.57;;
22565;SDS011;11449;51.330;19.378;2022-11-15T19:29:49;600.12;;;270.37;;
22565;SDS011;11449;51.330;19.378;2022-11-15T19:34:50;643.77;;;270.42;;
22565;SDS011;11449;51.330;19.378;2022-11-15T19:39:51;507.32;;;209.30;;
22565;SDS011;11449;51.330;19.378;2022-11-15T19:44:52;600.92;;;241.25;;
22565;SDS011;11449;51.330;19.378;2022-11-15T19:49:53;618.58;;;222.30;;
22565;SDS011;11449;51.330;19.378;2022-11-15T19:54:53;388.57;;;161.60;;
22565;SDS011;11449;51.330;19.378;2022-11-15T19:59:54;433.83;;;161.73;;
22565;SDS011;11449;51.330;19.378;2022-11-15T20:04:55;426.98;;;175.57;;
22565;SDS011;11449;51.330;19.378;2022-11-15T20:09:56;457.88;;;185.90;;
22565;SDS011;11449;51.330;19.378;2022-11-15T20:14:57;346.43;;;143.97;;
22565;SDS011;11449;51.330;19.378;2022-11-15T20:19:58;370.93;;;142.80;;
22565;SDS011;11449;51.330;19.378;2022-11-15T20:25:00;564.60;;;181.93;;
22565;SDS011;11449;51.330;19.378;2022-11-15T20:30:01;600.45;;;203.15;;
22565;SDS011;11449;51.330;19.378;2022-11-15T20:35:02;351.05;;;135.78;;
22565;SDS011;11449;51.330;19.378;2022-11-15T20:40:04;491.12;;;159.80;;
22565;SDS011;11449;51.330;19.378;2022-11-15T20:45:05;427.67;;;152.68;;
22565;SDS011;11449;51.330;19.378;2022-11-15T20:50:06;439.90;;;153.80;;
22565;SDS011;11449;51.330;19.378;2022-11-15T20:55:08;388.45;;;143.05;;
22565;SDS011;11449;51.330;19.378;2022-11-15T21:00:09;316.50;;;93.62;;
22565;SDS011;11449;51.330;19.378;2022-11-15T21:05:10;282.23;;;93.50;;
22565;SDS011;11449;51.330;19.378;2022-11-15T21:10:11;348.52;;;116.17;;
22565;SDS011;11449;51.330;19.378;2022-11-15T21:15:32;266.20;;;112.68;;
22565;SDS011;11449;51.330;19.378;2022-11-15T21:20:33;170.38;;;52.80;;
22565;SDS011;11449;51.330;19.378;2022-11-15T21:25:34;348.73;;;101.00;;
22565;SDS011;11449;51.330;19.378;2022-11-15T21:30:35;202.85;;;55.10;;
22565;SDS011;11449;51.330;19.378;2022-11-15T21:35:36;244.18;;;80.95;;
22565;SDS011;11449;51.330;19.378;2022-11-15T21:40:37;200.93;;;93.17;;
22565;SDS011;11449;51.330;19.378;2022-11-15T21:45:38;171.02;;;58.45;;
22565;SDS011;11449;51.330;19.378;2022-11-15T21:50:39;167.62;;;44.63;;
22565;SDS011;11449;51.330;19.378;2022-11-15T21:55:39;186.32;;;59.48;;
22565;SDS011;11449;51.330;19.378;2022-11-15T22:00:41;176.22;;;74.53;;
22565;SDS011;11449;51.330;19.378;2022-11-15T22:05:53;151.90;;;47.25;;
22565;SDS011;11449;51.330;19.378;2022-11-15T22:10:54;183.27;;;36.05;;
22565;SDS011;11449;51.330;19.378;2022-11-15T22:15:56;138.97;;;51.30;;
22565;SDS011;11449;51.330;19.378;2022-11-15T22:20:58;411.85;;;126.65;;
22565;SDS011;11449;51.330;19.378;2022-11-15T22:25:59;426.63;;;122.77;;
22565;SDS011;11449;51.330;19.378;2022-11-15T22:31:00;475.37;;;127.70;;
22565;SDS011;11449;51.330;19.378;2022-11-15T22:36:01;422.47;;;115.13;;
22565;SDS011;11449;51.330;19.378;2022-11-15T22:41:03;499.40;;;131.40;;
22565;SDS011;11449;51.330;19.378;2022-11-15T22:46:04;498.20;;;123.10;;
22565;SDS011;11449;51.330;19.378;2022-11-15T22:51:05;463.00;;;126.90;;
22565;SDS011;11449;51.330;19.378;2022-11-15T22:56:06;463.90;;;129.53;;
22565;SDS011;11449;51.330;19.378;2022-11-15T23:01:16;424.83;;;121.53;;
22565;SDS011;11449;51.330;19.378;2022-11-15T23:06:10;475.67;;;121.30;;
22565;SDS011;11449;51.330;19.378;2022-11-15T23:11:11;461.03;;;115.97;;
22565;SDS011;11449;51.330;19.378;2022-11-15T23:16:30;414.73;;;111.10;;
22565;SDS011;11449;51.330;19.378;2022-11-15T23:21:35;461.40;;;113.93;;
22565;SDS011;11449;51.330;19.378;2022-11-15T23:26:55;423.52;;;123.60;;
22565;SDS011;11449;51.330;19.378;2022-11-15T23:31:56;394.10;;;113.07;;
22565;SDS011;11449;51.330;19.378;2022-11-15T23:37:16;410.07;;;109.90;;
22565;SDS011;11449;51.330;19.378;2022-11-15T23:42:17;363.70;;;127.97;;
22565;SDS011;11449;51.330;19.378;2022-11-15T23:47:19;178.07;;;45.58;;
22565;SDS011;11449;51.330;19.378;2022-11-15T23:52:20;276.55;;;101.25;;
22565;SDS011;11449;51.330;19.378;2022-11-15T23:57:22;346.77;;;110.70;;
